Time;durP1;ratioP1;P1;durP2;ratioP2;P2;SDS_P1;SDS_P2;PMS_P1;PMS_P2;Temp;Humidity;BMP_temperature;BMP_pressure;BME280_temperature;BME280_humidity;BME280_pressure;Samples;Min_cycle;Max_cycle;Signal;HPM_P1;HPM_P2
2023/04/05 00:00:00;;;;;;;0.17;0.17;;;1.40;99.90;;;;;;5020323;28;20619;-79
2023/04/05 00:02:28;;;;;;;0.10;0.10;;;1.40;99.90;;;;;;5020725;28;20018;-78
2023/04/05 00:04:56;;;;;;;0.10;0.10;;;1.30;99.90;;;;;;5020977;28;20041;-78
2023/04/05 00:07:23;;;;;;;3.55;3.20;;;1.30;99.90;;;;;;5003377;28;20029;-78
2023/04/05 00:09:50;;;;;;;0.57;0.57;;;1.40;99.90;;;;;;5025243;28;20021;-78
2023/04/05 00:12:15;;;;;;;0.10;0.10;;;1.40;99.90;;;;;;5008147;28;20037;-79
2023/04/05 00:14:44;;;;;;;0.20;0.20;;;1.40;99.90;;;;;;5010288;28;20026;-78
2023/04/05 00:17:21;;;;;;;0.20;0.20;;;1.30;99.90;;;;;;5012025;28;20041;-79
2023/04/05 00:19:56;;;;;;;0.10;0.10;;;-0.10;99.90;;;;;;5008365;28;20028;-78
2023/04/05 00:22:30;;;;;;;0.63;0.63;;;1.20;99.90;;;;;;5028201;28;20021;-79
2023/04/05 00:24:59;;;;;;;0.10;0.10;;;0.10;99.90;;;;;;5007620;28;20068;-79
2023/04/05 00:27:25;;;;;;;0.20;0.20;;;;;;;;;;5011056;28;20013;-79
2023/04/05 00:29:54;;;;;;;0.20;0.20;;;1.30;99.90;;;;;;5029755;28;20049;-78
2023/04/05 00:32:24;;;;;;;0.30;0.30;;;1.40;99.90;;;;;;5029973;28;20029;-78
2023/04/05 00:34:51;;;;;;;0.10;0.10;;;1.30;99.90;;;;;;5029282;28;20021;-79
2023/04/05 00:37:20;;;;;;;0.10;0.10;;;2.00;99.90;;;;;;5009293;28;20210;-78
2023/04/05 00:39:49;;;;;;;0.10;0.10;;;1.40;99.90;;;;;;5023928;28;20025;-78
2023/04/05 00:42:17;;;;;;;0.20;0.20;;;1.40;99.90;;;;;;5005065;28;20021;-78
2023/04/05 00:44:43;;;;;;;0.10;0.10;;;;;;;;;;5006149;28;20018;-78
2023/04/05 00:47:09;;;;;;;0.20;0.20;;;1.30;99.90;;;;;;5023264;28;20029;-78
2023/04/05 00:49:36;;;;;;;0.17;0.17;;;1.40;99.90;;;;;;5023615;28;20017;-78
2023/04/05 00:52:03;;;;;;;0.10;0.10;;;1.30;99.90;;;;;;5023783;28;20025;-78
2023/04/05 00:54:29;;;;;;;0.20;0.20;;;1.30;99.90;;;;;;5029558;28;20036;-78
2023/04/05 00:57:02;;;;;;;0.10;0.10;;;1.30;99.90;;;;;;5031977;28;20040;-78
2023/04/05 00:59:28;;;;;;;0.17;0.17;;;1.30;99.90;;;;;;5029102;28;20027;-78
2023/04/05 01:02:15;;;;;;;0.20;0.20;;;1.20;99.90;;;;;;5007810;28;20026;-78
2023/04/05 01:04:48;;;;;;;0.20;0.20;;;1.20;99.90;;;;;;5028310;28;20022;-78
2023/04/05 01:07:49;;;;;;;0.20;0.20;;;1.20;99.90;;;;;;5008239;28;20028;-78
2023/04/05 01:10:19;;;;;;;0.10;0.10;;;-1.00;99.90;;;;;;5008184;28;20116;-78
2023/04/05 01:12:45;;;;;;;0.20;0.20;;;1.10;99.90;;;;;;5008941;28;20607;-78
2023/04/05 01:15:11;;;;;;;0.10;0.10;;;1.90;99.90;;;;;;5025699;28;20068;-77
2023/04/05 01:17:43;;;;;;;2.80;2.63;;;1.10;99.90;;;;;;5028578;28;20029;-78
2023/04/05 01:20:15;;;;;;;0.20;0.20;;;1.10;99.90;;;;;;5010015;28;20029;-78
2023/04/05 01:22:59;;;;;;;0.20;0.20;;;1.10;99.90;;;;;;5027770;28;20083;-78
2023/04/05 01:25:55;;;;;;;2.65;2.55;;;0.50;99.90;;;;;;5011259;28;20013;-80
2023/04/05 01:29:04;;;;;;;0.20;0.20;;;1.10;99.90;;;;;;5036275;28;20020;-78
2023/04/05 01:32:04;;;;;;;0.20;0.20;;;1.00;99.90;;;;;;4982077;28;20164;-78
2023/04/05 01:34:49;;;;;;;2.85;2.75;;;1.00;99.90;;;;;;5030069;28;20113;-78
2023/04/05 01:37:21;;;;;;;0.10;0.10;;;1.00;99.90;;;;;;5007632;28;20033;-77
2023/04/05 01:39:51;;;;;;;0.20;0.20;;;1.00;99.90;;;;;;5007483;28;20270;-79
2023/04/05 01:42:25;;;;;;;0.20;0.20;;;3.40;99.90;;;;;;5010215;28;20025;-78
2023/04/05 01:44:56;;;;;;;0.20;0.20;;;1.10;99.90;;;;;;5006408;28;20025;-79
2023/04/05 01:47:23;;;;;;;0.20;0.20;;;1.10;99.90;;;;;;5028023;28;20495;-78
2023/04/05 01:49:49;;;;;;;0.20;0.20;;;1.10;99.90;;;;;;5031961;28;20104;-78
2023/04/05 01:52:16;;;;;;;0.20;0.20;;;1.20;99.90;;;;;;5024502;28;20045;-78
2023/04/05 01:54:42;;;;;;;0.17;0.17;;;1.20;99.90;;;;;;5026370;28;20036;-79
2023/04/05 01:57:08;;;;;;;0.20;0.20;;;2.00;99.90;;;;;;5009439;28;20026;-78
2023/04/05 01:59:36;;;;;;;15.40;14.68;;;-0.50;99.90;;;;;;5025908;28;20077;-80
2023/04/05 02:02:05;;;;;;;0.10;0.10;;;;;;;;;;5006353;28;20018;-79
2023/04/05 02:04:31;;;;;;;0.10;0.10;;;;;;;;;;5014382;28;20052;-80
2023/04/05 02:07:04;;;;;;;0.10;0.10;;;1.10;99.90;;;;;;5034570;28;20082;-78
2023/04/05 02:09:32;;;;;;;0.10;0.10;;;1.00;99.90;;;;;;5033002;28;20094;-78
2023/04/05 02:12:00;;;;;;;0.20;0.20;;;1.10;99.90;;;;;;5026783;28;20017;-78
2023/04/05 02:14:28;;;;;;;0.10;0.10;;;1.10;99.90;;;;;;5027844;28;20033;-79
2023/04/05 02:17:01;;;;;;;1.45;1.45;;;0.10;99.90;;;;;;5013033;28;20052;-78
2023/04/05 02:19:28;;;;;;;0.30;0.30;;;1.20;99.90;;;;;;5030899;28;20032;-78
2023/04/05 02:21:56;;;;;;;0.20;0.20;;;1.20;99.90;;;;;;5029490;28;20345;-78
2023/04/05 02:24:25;;;;;;;0.40;0.40;;;1.10;99.90;;;;;;5027479;28;20014;-78
2023/04/05 02:26:54;;;;;;;0.10;0.10;;;1.10;99.90;;;;;;5027871;28;20108;-78
2023/04/05 02:29:19;;;;;;;0.10;0.10;;;1.10;99.90;;;;;;5012803;28;20017;-79
2023/04/05 02:31:46;;;;;;;0.75;0.75;;;1.10;99.90;;;;;;5012229;28;20032;-78
2023/04/05 02:34:21;;;;;;;0.28;0.28;;;1.10;99.90;;;;;;5031697;28;20108;-79
2023/04/05 02:36:52;;;;;;;0.10;0.10;;;1.30;99.90;;;;;;5008680;28;20168;-78
2023/04/05 02:39:21;;;;;;;0.20;0.20;;;1.20;99.90;;;;;;5033687;28;20109;-78
2023/04/05 02:41:47;;;;;;;0.10;0.10;;;1.40;99.90;;;;;;5013614;28;20056;-78
2023/04/05 02:44:13;;;;;;;0.10;0.10;;;1.40;99.90;;;;;;5028464;28;20479;-78
2023/04/05 02:46:39;;;;;;;0.10;0.10;;;1.40;99.90;;;;;;5029094;28;20041;-79
2023/04/05 02:49:18;;;;;;;0.20;0.20;;;1.40;99.90;;;;;;5028656;28;20034;-78
2023/04/05 02:51:43;;;;;;;0.10;0.10;;;2.30;99.90;;;;;;5006851;28;20034;-79
2023/04/05 02:54:12;;;;;;;0.10;0.10;;;1.50;99.90;;;;;;5010047;28;20064;-78
2023/04/05 02:56:39;;;;;;;0.20;0.20;;;1.50;99.90;;;;;;5026597;28;20021;-79
2023/04/05 02:59:07;;;;;;;0.20;0.20;;;1.70;99.90;;;;;;5026702;28;20499;-79
2023/04/05 03:01:42;;;;;;;0.10;0.10;;;1.40;99.90;;;;;;5007244;28;20108;-79
2023/04/05 03:04:11;;;;;;;0.10;0.10;;;1.10;99.90;;;;;;5006980;28;20756;-79
2023/04/05 03:06:47;;;;;;;0.10;0.10;;;1.00;99.90;;;;;;5005867;28;20021;-78
2023/04/05 03:09:32;;;;;;;0.20;0.20;;;0.90;99.90;;;;;;5008240;28;20198;-79
2023/04/05 03:12:19;;;;;;;0.85;0.85;;;0.90;99.90;;;;;;5029306;28;20652;-78
2023/04/05 03:15:07;;;;;;;0.20;0.20;;;1.10;99.90;;;;;;4961864;28;20074;-77
2023/04/05 03:17:34;;;;;;;0.10;0.10;;;1.10;99.90;;;;;;4958503;28;20670;-79
2023/04/05 03:20:09;;;;;;;1.42;1.38;;;1.20;99.90;;;;;;4962392;28;20034;-78
2023/04/05 03:22:39;;;;;;;0.25;0.25;;;1.30;99.90;;;;;;4963384;28;20026;-78
2023/04/05 03:25:06;;;;;;;0.10;0.10;;;1.40;99.90;;;;;;4966855;28;20178;-78
2023/04/05 03:27:38;;;;;;;0.10;0.10;;;1.60;99.90;;;;;;4983148;28;20125;-79
2023/04/05 03:30:04;;;;;;;0.13;0.13;;;1.90;99.90;;;;;;4970653;28;20070;-79
2023/04/05 03:32:33;;;;;;;0.20;0.20;;;;;;;;;;4977108;28;20575;-79
2023/04/05 03:34:59;;;;;;;3.55;3.45;;;1.70;99.90;;;;;;4967656;28;20031;-79
2023/04/05 03:37:28;;;;;;;0.20;0.20;;;1.60;99.90;;;;;;4962203;28;20030;-79
2023/04/05 03:39:54;;;;;;;0.15;0.15;;;;;;;;;;4959124;28;20039;-79
2023/04/05 03:42:25;;;;;;;0.13;0.13;;;1.70;99.90;;;;;;4962116;28;20031;-78
2023/04/05 03:44:58;;;;;;;0.10;0.10;;;1.90;99.90;;;;;;4962958;28;20023;-78
2023/04/05 03:47:26;;;;;;;9.68;8.77;;;1.70;99.90;;;;;;5008664;28;20047;-79
2023/04/05 03:49:52;;;;;;;0.10;0.10;;;1.80;99.90;;;;;;5026984;28;20013;-78
2023/04/05 03:52:21;;;;;;;0.10;0.10;;;1.70;99.90;;;;;;5010123;28;20024;-78
2023/04/05 03:54:47;;;;;;;0.10;0.10;;;1.70;99.90;;;;;;5010572;28;20108;-78
2023/04/05 03:57:14;;;;;;;0.20;0.20;;;1.80;99.90;;;;;;5029464;28;20053;-79
2023/04/05 03:59:40;;;;;;;0.17;0.17;;;1.80;99.90;;;;;;5027060;28;20018;-78
2023/04/05 04:02:06;;;;;;;0.10;0.10;;;1.80;99.90;;;;;;5014522;28;20022;-79
2023/04/05 04:04:33;;;;;;;0.20;0.20;;;1.90;99.90;;;;;;5029296;28;20022;-78
2023/04/05 04:06:59;;;;;;;0.10;0.10;;;1.90;99.90;;;;;;5027813;28;20044;-78
2023/04/05 04:09:28;;;;;;;0.10;0.10;;;1.90;99.90;;;;;;5032491;28;20017;-79
2023/04/05 04:11:56;;;;;;;0.10;0.10;;;1.90;99.90;;;;;;5043797;28;20025;-78
2023/04/05 04:14:27;;;;;;;0.17;0.17;;;1.80;99.90;;;;;;5021820;28;20487;-78
2023/04/05 04:17:38;;;;;;;0.10;0.10;;;1.80;99.90;;;;;;5038818;28;20037;-78
2023/04/05 04:20:12;;;;;;;0.10;0.10;;;1.80;99.90;;;;;;4963061;29;20043;-78
2023/04/05 04:22:41;;;;;;;0.10;0.10;;;4.70;99.90;;;;;;4956870;29;20721;-78
2023/04/05 04:25:29;;;;;;;0.17;0.17;;;1.60;99.90;;;;;;4937174;29;20084;-77
2023/04/05 04:27:59;;;;;;;1.00;1.00;;;1.50;99.90;;;;;;4938572;29;20062;-78
2023/04/05 04:30:37;;;;;;;0.10;0.10;;;1.50;99.90;;;;;;4936385;29;20115;-78
2023/04/05 04:33:03;;;;;;;0.10;0.10;;;1.40;99.90;;;;;;4934794;29;20765;-77
2023/04/05 04:35:37;;;;;;;0.10;0.10;;;1.30;99.90;;;;;;4938309;29;20039;-77
2023/04/05 04:38:08;;;;;;;0.15;0.15;;;1.20;99.90;;;;;;4937385;29;20028;-78
2023/04/05 04:40:39;;;;;;;0.10;0.10;;;1.20;99.90;;;;;;4938109;29;20775;-78
2023/04/05 04:43:15;;;;;;;0.20;0.20;;;1.20;99.90;;;;;;4938649;29;20079;-78
2023/04/05 04:45:53;;;;;;;0.20;0.20;;;1.20;99.90;;;;;;4937288;29;20044;-77
2023/04/05 04:48:24;;;;;;;0.20;0.20;;;1.20;99.90;;;;;;4929417;29;20071;-78
2023/04/05 04:50:57;;;;;;;0.20;0.20;;;1.20;99.90;;;;;;4976474;28;20034;-78
2023/04/05 04:53:23;;;;;;;0.10;0.10;;;1.20;99.90;;;;;;4992891;28;20031;-78
2023/04/05 04:55:53;;;;;;;0.17;0.17;;;1.10;99.90;;;;;;5001555;28;20036;-78
2023/04/05 04:58:21;;;;;;;0.43;0.43;;;1.00;99.90;;;;;;5034127;28;20071;-78
2023/04/05 05:00:47;;;;;;;0.17;0.17;;;1.00;99.90;;;;;;5032714;28;20086;-78
2023/04/05 05:03:16;;;;;;;0.83;0.83;;;1.00;99.90;;;;;;5033079;28;20344;-78
2023/04/05 05:05:45;;;;;;;0.27;0.27;;;1.00;99.90;;;;;;5035961;28;20018;-78
2023/04/05 05:08:14;;;;;;;0.20;0.20;;;0.90;99.90;;;;;;5025727;28;20331;-79
2023/04/05 05:10:40;;;;;;;0.20;0.20;;;0.90;99.90;;;;;;5009088;28;20021;-78
2023/04/05 05:13:06;;;;;;;0.20;0.20;;;;;;;;;;5026932;28;20118;-79
2023/04/05 05:15:41;;;;;;;0.20;0.20;;;2.70;99.90;;;;;;5026272;28;20042;-78
2023/04/05 05:18:18;;;;;;;0.20;0.20;;;1.00;99.90;;;;;;5018767;22;20041;-78
2023/04/05 05:20:57;;;;;;;0.13;0.13;;;1.10;99.90;;;;;;5013190;28;20109;-78
2023/04/05 05:23:31;;;;;;;0.20;0.20;;;1.10;99.90;;;;;;5024719;28;20034;-78
2023/04/05 05:26:07;;;;;;;0.20;0.20;;;1.10;99.90;;;;;;5011534;28;20052;-78
2023/04/05 05:28:33;;;;;;;0.10;0.10;;;-0.80;99.90;;;;;;5007716;28;20042;-78
2023/04/05 05:31:02;;;;;;;0.10;0.10;;;1.20;99.90;;;;;;5008750;28;20028;-78
2023/04/05 05:33:28;;;;;;;0.13;0.13;;;1.20;99.90;;;;;;5009420;28;20030;-78
2023/04/05 05:35:57;;;;;;;0.10;0.10;;;1.30;99.90;;;;;;5008328;28;20026;-78
2023/04/05 05:38:22;;;;;;;0.20;0.20;;;1.20;99.90;;;;;;4992924;28;20077;-78
2023/04/05 05:40:53;;;;;;;0.10;0.10;;;1.30;99.90;;;;;;5011401;28;20064;-78
2023/04/05 05:43:27;;;;;;;0.10;0.10;;;1.40;99.90;;;;;;5013868;28;20017;-78
2023/04/05 05:45:53;;;;;;;0.20;0.20;;;1.40;99.90;;;;;;5012455;28;20026;-79
2023/04/05 05:48:19;;;;;;;0.10;0.10;;;1.30;99.90;;;;;;5005391;28;20590;-78
2023/04/05 05:50:47;;;;;;;0.10;0.10;;;1.30;99.90;;;;;;5012656;28;20667;-78
2023/04/05 05:53:14;;;;;;;0.10;0.10;;;1.30;99.90;;;;;;5011398;28;20112;-78
2023/04/05 05:55:46;;;;;;;0.98;0.98;;;1.40;99.90;;;;;;5010074;28;20018;-78
2023/04/05 05:58:22;;;;;;;0.10;0.10;;;1.40;99.90;;;;;;5014934;28;20034;-79
2023/04/05 06:01:03;;;;;;;0.17;0.17;;;1.40;99.90;;;;;;5010736;28;20034;-78
2023/04/05 06:03:29;;;;;;;0.10;0.10;;;-0.80;99.90;;;;;;5013074;28;20673;-78
2023/04/05 06:05:58;;;;;;;0.20;0.20;;;1.60;99.90;;;;;;5010997;28;20022;-78
2023/04/05 06:08:28;;;;;;;0.20;0.20;;;1.60;99.90;;;;;;5012523;28;20026;-78
2023/04/05 06:10:58;;;;;;;0.20;0.20;;;1.70;99.90;;;;;;5006973;28;20080;-81
2023/04/05 06:13:25;;;;;;;0.20;0.20;;;1.80;99.90;;;;;;4987123;28;20026;-80
2023/04/05 06:15:51;;;;;;;0.20;0.20;;;1.80;99.90;;;;;;4998746;28;20022;-79
2023/04/05 06:18:19;;;;;;;0.20;0.20;;;1.80;99.90;;;;;;4987811;28;20030;-79
2023/04/05 06:21:18;;;;;;;9.68;9.30;;;1.80;99.90;;;;;;5004548;28;20026;-80
2023/04/05 06:23:58;;;;;;;0.10;0.10;;;1.90;99.90;;;;;;4966599;28;20046;-81
2023/04/05 06:26:29;;;;;;;21.40;19.75;;;;;;;;;;4967231;28;20062;-79
2023/04/05 06:29:10;;;;;;;0.90;0.90;;;2.00;99.90;;;;;;4970004;28;20035;-79
2023/04/05 06:31:37;;;;;;;0.13;0.13;;;2.10;99.90;;;;;;4971028;28;20022;-79
2023/04/05 06:34:03;;;;;;;0.10;0.10;;;;;;;;;;4965582;28;20039;-79
2023/04/05 06:36:33;;;;;;;0.15;0.15;;;2.10;99.90;;;;;;4969083;28;20087;-80
2023/04/05 06:39:00;;;;;;;0.10;0.10;;;;;;;;;;4952067;28;20086;-79
2023/04/05 06:41:27;;;;;;;0.20;0.20;;;2.10;99.90;;;;;;4966691;28;20788;-79
2023/04/05 06:43:56;;;;;;;0.10;0.10;;;2.50;99.90;;;;;;4966931;28;20031;-79
2023/04/05 06:46:27;;;;;;;0.10;0.10;;;2.40;99.90;;;;;;4964664;28;20166;-79
2023/04/05 06:48:59;;;;;;;0.20;0.20;;;2.40;99.90;;;;;;4967043;28;20133;-79
2023/04/05 06:51:31;;;;;;;0.10;0.10;;;2.40;99.90;;;;;;4966369;28;20023;-79
2023/04/05 06:53:58;;;;;;;0.10;0.10;;;2.30;99.90;;;;;;4968675;28;20035;-79
2023/04/05 06:56:25;;;;;;;0.10;0.10;;;2.60;99.90;;;;;;4969145;28;20053;-79
2023/04/05 06:59:01;;;;;;;0.30;0.30;;;2.90;99.90;;;;;;4979910;28;20032;-79
2023/04/05 07:01:29;;;;;;;0.10;0.10;;;2.50;99.90;;;;;;5004795;28;20045;-79
2023/04/05 07:03:55;;;;;;;0.10;0.10;;;2.60;99.90;;;;;;4985621;28;20076;-79
2023/04/05 07:06:27;;;;;;;0.68;0.68;;;2.70;99.90;;;;;;4988242;28;20029;-79
2023/04/05 07:08:55;;;;;;;0.10;0.10;;;2.60;99.90;;;;;;5007387;28;20026;-79
2023/04/05 07:11:33;;;;;;;0.10;0.10;;;2.60;99.90;;;;;;5007182;28;20011;-79
2023/04/05 07:14:00;;;;;;;0.10;0.10;;;;;;;;;;5011445;28;20073;-79
2023/04/05 07:16:27;;;;;;;3.85;2.75;;;2.50;99.90;;;;;;5007572;28;20080;-79
2023/04/05 07:18:56;;;;;;;0.10;0.10;;;2.30;99.90;;;;;;5007462;28;20052;-79
2023/04/05 07:21:25;;;;;;;0.10;0.10;;;2.30;99.90;;;;;;5008842;28;20029;-79
2023/04/05 07:23:54;;;;;;;0.10;0.10;;;1.90;99.90;;;;;;5008836;28;20018;-79
2023/04/05 07:26:22;;;;;;;0.10;0.10;;;2.40;99.90;;;;;;5004351;28;20038;-79
2023/04/05 07:28:48;;;;;;;0.10;0.10;;;;;;;;;;4986942;28;20097;-79
2023/04/05 07:31:17;;;;;;;0.10;0.10;;;2.30;99.90;;;;;;4989508;28;20044;-79
2023/04/05 07:33:43;;;;;;;0.10;0.10;;;2.50;99.90;;;;;;5005344;28;20650;-79
2023/04/05 07:36:09;;;;;;;0.10;0.10;;;2.60;99.90;;;;;;5008551;28;20080;-79
2023/04/05 07:38:36;;;;;;;0.00;0.00;;;2.70;99.90;;;;;;5006587;28;20037;-79
2023/04/05 07:41:08;;;;;;;0.10;0.10;;;;;;;;;;5005855;28;20026;-79
2023/04/05 07:43:47;;;;;;;0.10;0.10;;;3.00;99.90;;;;;;4989239;28;20076;-79
2023/04/05 07:46:13;;;;;;;0.10;0.10;;;;;;;;;;5006402;28;20030;-79
2023/04/05 07:48:42;;;;;;;0.00;0.00;;;3.20;99.90;;;;;;5007877;28;20022;-79
2023/04/05 07:51:10;;;;;;;0.10;0.10;;;3.40;99.90;;;;;;5011023;28;20042;-80
2023/04/05 07:53:37;;;;;;;0.10;0.10;;;3.40;99.90;;;;;;5007279;28;20026;-79
2023/04/05 07:56:06;;;;;;;0.08;0.08;;;3.70;99.90;;;;;;4989097;28;20026;-78
2023/04/05 07:58:43;;;;;;;0.03;0.03;;;3.70;99.90;;;;;;5007765;28;20673;-78
2023/04/05 08:01:10;;;;;;;0.10;0.10;;;3.80;99.90;;;;;;5006706;28;20033;-78
2023/04/05 08:03:38;;;;;;;0.10;0.10;;;4.00;99.90;;;;;;4991281;28;20029;-78
2023/04/05 08:06:12;;;;;;;0.10;0.10;;;4.10;99.90;;;;;;5005364;28;20026;-78
2023/04/05 08:08:40;;;;;;;0.20;0.20;;;4.20;99.90;;;;;;5008216;28;20729;-77
2023/04/05 08:11:06;;;;;;;0.10;0.10;;;4.20;99.90;;;;;;5006148;28;20030;-79
2023/04/05 08:13:32;;;;;;;0.10;0.10;;;4.30;99.90;;;;;;5004729;28;20030;-78
2023/04/05 08:16:00;;;;;;;1.05;1.05;;;4.40;99.90;;;;;;5006864;28;20021;-78
2023/04/05 08:18:27;;;;;;;0.00;0.00;;;4.50;99.90;;;;;;5006061;28;20108;-79
2023/04/05 08:20:57;;;;;;;0.00;0.00;;;4.60;99.90;;;;;;5004784;28;20109;-77
2023/04/05 08:23:23;;;;;;;0.00;0.00;;;4.60;99.90;;;;;;4987460;28;20022;-78
2023/04/05 08:25:49;;;;;;;0.03;0.03;;;4.70;99.90;;;;;;5007182;28;20088;-78
2023/04/05 08:28:16;;;;;;;0.00;0.00;;;3.10;99.90;;;;;;5008844;28;20025;-79
2023/04/05 08:30:45;;;;;;;0.00;0.00;;;;;;;;;;4992743;28;20128;-78
2023/04/05 08:33:12;;;;;;;0.00;0.00;;;5.00;99.90;;;;;;5008650;28;20493;-77
2023/04/05 08:35:39;;;;;;;0.10;0.10;;;4.80;99.90;;;;;;5010023;28;20272;-77
2023/04/05 08:38:08;;;;;;;0.20;0.20;;;4.80;99.90;;;;;;5005999;28;20049;-77
2023/04/05 08:40:42;;;;;;;0.10;0.10;;;5.10;99.90;;;;;;5009080;28;20034;-77
2023/04/05 08:43:29;;;;;;;0.00;0.00;;;5.20;99.90;;;;;;5008841;28;20735;-77
2023/04/05 08:45:57;;;;;;;2.17;2.08;;;5.20;99.90;;;;;;5009306;28;20014;-78
2023/04/05 08:48:23;;;;;;;1.45;1.45;;;5.40;99.90;;;;;;5007695;28;20033;-78
2023/04/05 08:51:09;;;;;;;0.00;0.00;;;5.60;99.90;;;;;;5007795;28;20088;-77
2023/04/05 08:53:38;;;;;;;0.03;0.03;;;5.40;99.90;;;;;;4990064;28;20037;-77
2023/04/05 08:56:07;;;;;;;0.10;0.10;;;5.30;99.90;;;;;;5008415;28;20045;-78
2023/04/05 08:58:36;;;;;;;0.10;0.10;;;5.40;99.90;;;;;;5014710;28;20573;-77
2023/04/05 09:01:06;;;;;;;0.10;0.10;;;5.20;99.90;;;;;;5016196;28;20016;-77
2023/04/05 09:03:42;;;;;;;0.10;0.10;;;5.20;99.90;;;;;;5011341;28;20729;-80
2023/04/05 09:06:11;;;;;;;0.08;0.08;;;5.20;99.90;;;;;;5008538;28;20033;-77
2023/04/05 09:08:40;;;;;;;0.00;0.00;;;5.60;99.90;;;;;;5008770;28;20054;-77
2023/04/05 09:11:06;;;;;;;0.10;0.10;;;5.40;99.90;;;;;;4990594;28;20037;-77
2023/04/05 09:13:32;;;;;;;0.10;0.10;;;5.10;99.90;;;;;;5012018;28;20022;-76
2023/04/05 09:16:01;;;;;;;0.00;0.00;;;5.90;99.90;;;;;;5007944;28;20029;-77
2023/04/05 09:18:31;;;;;;;0.15;0.15;;;5.20;99.90;;;;;;5012703;28;20102;-76
2023/04/05 09:21:05;;;;;;;0.00;0.00;;;5.50;99.90;;;;;;5014067;28;20500;-78
2023/04/05 09:23:33;;;;;;;0.20;0.20;;;5.40;99.90;;;;;;5010751;28;20443;-76
2023/04/05 09:26:01;;;;;;;0.00;0.00;;;5.40;99.90;;;;;;5007092;28;20025;-77
2023/04/05 09:28:53;;;;;;;0.10;0.10;;;5.40;99.90;;;;;;5006780;28;20093;-75
2023/04/05 09:31:42;;;;;;;0.10;0.10;;;5.60;99.90;;;;;;5008024;28;20121;-77
2023/04/05 09:34:08;;;;;;;0.00;0.00;;;5.60;99.90;;;;;;5005062;28;20829;-75
2023/04/05 09:36:35;;;;;;;0.00;0.00;;;5.80;99.90;;;;;;5001772;28;20659;-78
2023/04/05 09:39:05;;;;;;;0.00;0.00;;;5.70;99.90;;;;;;5007947;28;20054;-78
2023/04/05 09:41:32;;;;;;;0.10;0.10;;;7.30;99.90;;;;;;4984068;28;20034;-77
2023/04/05 09:43:58;;;;;;;1.98;1.83;;;;;;;;;;5004776;28;20771;-77
2023/04/05 09:46:36;;;;;;;0.55;0.55;;;5.30;99.90;;;;;;5004048;28;20081;-76
2023/04/05 09:49:02;;;;;;;0.10;0.10;;;5.10;99.90;;;;;;5005113;28;20025;-76
2023/04/05 09:51:36;;;;;;;7.93;3.85;;;5.10;99.90;;;;;;5006121;28;20114;-76
2023/04/05 09:54:07;;;;;;;0.10;0.10;;;5.20;99.90;;;;;;5004383;28;20033;-75
2023/04/05 09:56:35;;;;;;;0.00;0.00;;;5.20;99.90;;;;;;5005533;28;20038;-75
2023/04/05 09:59:11;;;;;;;0.00;0.00;;;4.90;99.90;;;;;;5008145;28;20092;-76
2023/04/05 10:01:43;;;;;;;0.28;0.28;;;4.90;99.90;;;;;;4987377;28;20084;-76
2023/04/05 10:04:10;;;;;;;0.00;0.00;;;;;;;;;;5002338;28;20057;-76
2023/04/05 10:06:42;;;;;;;0.10;0.10;;;5.30;99.90;;;;;;5005427;28;20026;-77
2023/04/05 10:09:16;;;;;;;0.00;0.00;;;5.30;99.90;;;;;;5005432;28;20045;-76
2023/04/05 10:11:44;;;;;;;0.20;0.20;;;5.30;99.90;;;;;;5005917;28;20022;-76
2023/04/05 10:14:10;;;;;;;0.00;0.00;;;;;;;;;;5003628;28;20033;-77
2023/04/05 10:16:55;;;;;;;0.10;0.10;;;5.40;99.90;;;;;;5003152;28;20014;-76
2023/04/05 10:19:44;;;;;;;0.08;0.08;;;5.30;99.90;;;;;;5002065;28;20636;-76
2023/04/05 10:22:16;;;;;;;0.00;0.00;;;5.30;99.90;;;;;;5001539;28;20029;-76
2023/04/05 10:25:10;;;;;;;0.00;0.00;;;5.50;99.90;;;;;;5002661;28;20025;-76
2023/04/05 10:27:46;;;;;;;0.00;0.00;;;4.90;99.90;;;;;;4903302;29;20036;-76
2023/04/05 10:30:14;;;;;;;0.15;0.15;;;5.80;99.90;;;;;;4907237;29;20043;-76
2023/04/05 10:33:15;;;;;;;0.10;0.10;;;5.30;99.90;;;;;;4904645;29;20714;-76
2023/04/05 10:36:08;;;;;;;0.00;0.00;;;5.60;99.90;;;;;;4904551;29;20565;-77
2023/04/05 10:39:04;;;;;;;0.10;0.10;;;5.90;99.90;;;;;;4903894;29;20025;-76
2023/04/05 10:41:42;;;;;;;0.00;0.00;;;6.00;99.00;;;;;;4904607;29;20475;-77
2023/04/05 10:44:13;;;;;;;0.10;0.10;;;6.20;98.50;;;;;;4905187;29;20028;-78
2023/04/05 10:46:43;;;;;;;0.00;0.00;;;6.30;96.80;;;;;;4907363;29;20028;-75
2023/04/05 10:49:28;;;;;;;0.00;0.00;;;6.20;96.50;;;;;;4910388;29;20050;-76
2023/04/05 10:52:17;;;;;;;0.00;0.00;;;6.10;99.10;;;;;;4892531;29;20087;-76
2023/04/05 10:54:44;;;;;;;0.03;0.03;;;5.80;99.90;;;;;;4887830;29;20063;-76
2023/04/05 10:57:11;;;;;;;0.00;0.00;;;6.00;99.80;;;;;;4875878;29;20043;-76
2023/04/05 10:59:46;;;;;;;0.00;0.00;;;6.20;99.70;;;;;;4874237;29;20017;-77
2023/04/05 11:02:13;;;;;;;0.00;0.00;;;5.90;97.80;;;;;;4880297;29;20067;-74
2023/04/05 11:04:40;;;;;;;0.00;0.00;;;5.90;99.90;;;;;;4940204;28;20027;-76
2023/04/05 11:07:17;;;;;;;0.10;0.10;;;6.00;99.90;;;;;;4960882;28;20033;-78
2023/04/05 11:10:02;;;;;;;0.03;0.03;;;5.60;99.90;;;;;;4977235;28;20023;-78
2023/04/05 11:12:45;;;;;;;0.00;0.00;;;2.90;97.40;;;;;;4974525;28;20035;-80
2023/04/05 11:15:26;;;;;;;0.10;0.10;;;5.50;98.40;;;;;;4970748;28;20074;-78
2023/04/05 11:18:07;;;;;;;1.00;0.68;;;5.40;99.90;;;;;;4973962;28;20034;-77
2023/04/05 11:20:45;;;;;;;0.10;0.10;;;5.50;98.30;;;;;;4974792;28;20046;-76
2023/04/05 11:23:42;;;;;;;0.03;0.03;;;5.50;99.90;;;;;;4976512;28;20038;-78
2023/04/05 11:26:24;;;;;;;0.00;0.00;;;5.50;99.90;;;;;;5004571;28;20053;-79
2023/04/05 11:29:09;;;;;;;0.10;0.10;;;5.50;99.90;;;;;;4992344;28;20042;-79
2023/04/05 11:32:05;;;;;;;0.00;0.00;;;5.80;99.40;;;;;;4972336;28;20129;-79
2023/04/05 11:34:38;;;;;;;0.00;0.00;;;5.40;99.30;;;;;;4993449;28;20696;-79
2023/04/05 11:37:06;;;;;;;0.00;0.00;;;7.70;99.90;;;;;;4976653;28;20116;-78
2023/04/05 11:39:38;;;;;;;0.10;0.10;;;5.50;99.90;;;;;;4998539;28;20088;-78
2023/04/05 11:42:15;;;;;;;0.10;0.10;;;5.50;99.90;;;;;;4982180;28;20034;-76
2023/04/05 11:44:56;;;;;;;0.10;0.10;;;5.50;98.20;;;;;;4984238;28;20050;-76
2023/04/05 11:47:52;;;;;;;0.10;0.10;;;5.30;96.70;;;;;;4995632;28;20746;-79
2023/04/05 11:50:20;;;;;;;0.10;0.10;;;4.80;98.50;;;;;;4977907;28;20038;-77
2023/04/05 11:53:13;;;;;;;0.10;0.10;;;5.40;99.30;;;;;;4998658;28;20027;-77
2023/04/05 11:55:50;;;;;;;0.05;0.05;;;5.50;99.00;;;;;;5014605;28;20042;-76
2023/04/05 11:58:24;;;;;;;0.00;0.00;;;5.30;99.90;;;;;;5012951;28;20018;-77
2023/04/05 12:01:01;;;;;;;0.00;0.00;;;5.40;99.90;;;;;;4990089;28;20088;-79
2023/04/05 12:03:30;;;;;;;0.00;0.00;;;5.40;99.90;;;;;;5002665;28;20542;-77
2023/04/05 12:06:02;;;;;;;0.10;0.10;;;5.50;99.90;;;;;;5000610;28;20026;-76
2023/04/05 12:08:52;;;;;;;0.00;0.00;;;5.80;99.10;;;;;;5019810;28;20038;-75
2023/04/05 12:11:29;;;;;;;0.00;0.00;;;5.90;98.30;;;;;;5018458;28;20049;-75
2023/04/05 12:13:59;;;;;;;0.00;0.00;;;5.30;98.10;;;;;;5018994;28;20124;-76
2023/04/05 12:16:26;;;;;;;1.23;1.23;;;5.40;99.50;;;;;;5016399;28;20656;-75
2023/04/05 12:18:56;;;;;;;0.00;0.00;;;5.50;98.70;;;;;;4988827;28;20052;-78
2023/04/05 12:21:34;;;;;;;0.10;0.10;;;5.30;99.00;;;;;;5015782;28;20021;-78
2023/04/05 12:24:00;;;;;;;0.03;0.03;;;5.00;99.60;;;;;;5006640;28;20030;-77
2023/04/05 12:26:33;;;;;;;0.75;0.75;;;5.20;99.30;;;;;;4986020;28;20018;-75
2023/04/05 12:29:03;;;;;;;0.00;0.00;;;5.10;98.90;;;;;;4997985;28;20034;-77
2023/04/05 12:31:42;;;;;;;0.00;0.00;;;5.20;99.70;;;;;;4964941;28;20066;-77
2023/04/05 12:34:35;;;;;;;0.00;0.00;;;5.20;96.50;;;;;;5012318;28;20023;-81
2023/04/05 12:37:02;;;;;;;0.00;0.00;;;5.20;97.30;;;;;;5006264;28;20019;-77
2023/04/05 12:39:33;;;;;;;0.10;0.10;;;5.20;99.50;;;;;;4991380;28;20031;-75
2023/04/05 12:41:59;;;;;;;0.10;0.10;;;5.10;99.00;;;;;;4994733;28;20028;-76
2023/04/05 12:44:29;;;;;;;0.00;0.00;;;5.00;99.50;;;;;;4996113;28;20022;-76
2023/04/05 12:47:06;;;;;;;0.00;0.00;;;5.10;99.70;;;;;;4999239;28;20011;-74
2023/04/05 12:49:37;;;;;;;0.00;0.00;;;5.00;98.80;;;;;;4996263;28;20025;-74
2023/04/05 12:52:02;;;;;;;0.10;0.10;;;4.90;99.90;;;;;;4990997;28;20023;-75
2023/04/05 12:54:34;;;;;;;0.05;0.05;;;4.90;99.90;;;;;;5006950;28;20035;-76
2023/04/05 12:57:07;;;;;;;0.10;0.10;;;4.90;99.90;;;;;;5012838;28;20014;-77
2023/04/05 12:59:33;;;;;;;0.10;0.10;;;4.90;99.90;;;;;;5000649;28;20030;-79
2023/04/05 13:02:26;;;;;;;0.00;0.00;;;4.90;99.90;;;;;;5001525;28;20019;-75
2023/04/05 13:04:52;;;;;;;0.10;0.10;;;;;;;;;;5003644;22;20125;-76
2023/04/05 13:07:19;;;;;;;0.10;0.10;;;;;;;;;;5059507;28;20043;-74
2023/04/05 13:09:44;;;;;;;0.10;0.10;;;5.10;99.90;;;;;;5059576;28;20036;-78
2023/04/05 13:12:11;;;;;;;0.00;0.00;;;5.10;99.90;;;;;;5087381;28;20063;-78
2023/04/05 13:14:38;;;;;;;0.00;0.00;;;5.10;99.90;;;;;;5061220;28;20066;-79
2023/04/05 13:17:04;;;;;;;0.05;0.05;;;;;;;;;;5083481;28;20754;-77
2023/04/05 13:19:42;;;;;;;0.00;0.00;;;4.80;99.90;;;;;;5059992;28;20017;-77
2023/04/05 13:22:09;;;;;;;0.85;0.77;;;;;;;;;;5056832;28;20173;-78
2023/04/05 13:24:34;;;;;;;0.00;0.00;;;4.60;98.50;;;;;;5058692;28;20033;-75
2023/04/05 13:27:01;;;;;;;0.10;0.10;;;;;;;;;;5053975;28;20024;-74